sensor_id;sensor_type;location;lat;lon;timestamp;temperature;humidity
17795;DHT22;9021;50.882;4.326;2023-08-06T00:01:29;16.40;99.90
17795;DHT22;9021;50.882;4.326;2023-08-06T00:03:54;16.40;99.90
17795;DHT22;9021;50.882;4.326;2023-08-06T00:06:20;16.50;99.90
17795;DHT22;9021;50.882;4.326;2023-08-06T00:08:45;16.50;99.90
17795;DHT22;9021;50.882;4.326;2023-08-06T00:11:11;16.50;99.90
17795;DHT22;9021;50.882;4.326;2023-08-06T00:13:38;16.60;99.90
17795;DHT22;9021;50.882;4.326;2023-08-06T00:16:13;16.70;99.90
17795;DHT22;9021;50.882;4.326;2023-08-06T00:18:38;16.70;99.90
17795;DHT22;9021;50.882;4.326;2023-08-06T00:21:04;16.60;99.90
17795;DHT22;9021;50.882;4.326;2023-08-06T00:23:29;16.60;99.90
17795;DHT22;9021;50.882;4.326;2023-08-06T00:25:55;16.60;99.90
17795;DHT22;9021;50.882;4.326;2023-08-06T00:28:20;16.60;99.90
17795;DHT22;9021;50.882;4.326;2023-08-06T00:30:46;16.50;99.90
17795;DHT22;9021;50.882;4.326;2023-08-06T00:33:11;16.50;99.90
17795;DHT22;9021;50.882;4.326;2023-08-06T00:35:37;16.50;99.90
17795;DHT22;9021;50.882;4.326;2023-08-06T00:38:02;16.50;99.90
17795;DHT22;9021;50.882;4.326;2023-08-06T00:40:28;16.50;99.90
17795;DHT22;9021;50.882;4.326;2023-08-06T00:42:55;16.60;99.90
17795;DHT22;9021;50.882;4.326;2023-08-06T00:45:21;16.60;99.90
17795;DHT22;9021;50.882;4.326;2023-08-06T00:47:47;13.50;99.90
17795;DHT22;9021;50.882;4.326;2023-08-06T00:50:13;16.60;99.90
17795;DHT22;9021;50.882;4.326;2023-08-06T00:52:38;16.60;99.90
17795;DHT22;9021;50.882;4.326;2023-08-06T00:55:04;16.60;99.90
17795;DHT22;9021;50.882;4.326;2023-08-06T00:57:30;16.60;99.90
17795;DHT22;9021;50.882;4.326;2023-08-06T00:59:56;16.70;99.90
17795;DHT22;9021;50.882;4.326;2023-08-06T01:02:22;16.70;99.90
17795;DHT22;9021;50.882;4.326;2023-08-06T01:04:47;16.70;99.90
17795;DHT22;9021;50.882;4.326;2023-08-06T01:09:45;16.70;99.90
17795;DHT22;9021;50.882;4.326;2023-08-06T01:12:31;16.80;99.90
17795;DHT22;9021;50.882;4.326;2023-08-06T01:15:01;16.80;99.90
17795;DHT22;9021;50.882;4.326;2023-08-06T01:17:28;16.70;99.90
17795;DHT22;9021;50.882;4.326;2023-08-06T01:19:55;16.70;99.90
17795;DHT22;9021;50.882;4.326;2023-08-06T01:22:20;16.60;99.90
17795;DHT22;9021;50.882;4.326;2023-08-06T01:24:46;16.50;99.90
17795;DHT22;9021;50.882;4.326;2023-08-06T01:27:24;16.60;99.90
17795;DHT22;9021;50.882;4.326;2023-08-06T01:29:56;16.70;99.90
17795;DHT22;9021;50.882;4.326;2023-08-06T01:32:24;16.70;99.90
17795;DHT22;9021;50.882;4.326;2023-08-06T01:34:50;16.80;99.90
17795;DHT22;9021;50.882;4.326;2023-08-06T01:37:16;16.90;99.90
17795;DHT22;9021;50.882;4.326;2023-08-06T01:39:42;16.80;99.90
17795;DHT22;9021;50.882;4.326;2023-08-06T01:42:08;16.90;99.90
17795;DHT22;9021;50.882;4.326;2023-08-06T01:44:33;14.10;99.90
17795;DHT22;9021;50.882;4.326;2023-08-06T01:46:59;16.80;99.90
17795;DHT22;9021;50.882;4.326;2023-08-06T01:49:24;16.80;99.90
17795;DHT22;9021;50.882;4.326;2023-08-06T01:51:50;16.90;99.90
17795;DHT22;9021;50.882;4.326;2023-08-06T01:54:15;16.90;99.90
17795;DHT22;9021;50.882;4.326;2023-08-06T01:56:41;16.80;99.90
17795;DHT22;9021;50.882;4.326;2023-08-06T01:59:06;16.80;99.90
17795;DHT22;9021;50.882;4.326;2023-08-06T02:01:32;16.90;99.90
17795;DHT22;9021;50.882;4.326;2023-08-06T02:03:57;16.80;99.90
17795;DHT22;9021;50.882;4.326;2023-08-06T02:06:23;16.80;99.90
17795;DHT22;9021;50.882;4.326;2023-08-06T02:08:48;16.80;99.90
17795;DHT22;9021;50.882;4.326;2023-08-06T02:11:14;16.80;99.90
17795;DHT22;9021;50.882;4.326;2023-08-06T02:13:39;16.80;99.90
17795;DHT22;9021;50.882;4.326;2023-08-06T02:16:06;16.70;99.90
17795;DHT22;9021;50.882;4.326;2023-08-06T02:18:32;16.70;99.90
17795;DHT22;9021;50.882;4.326;2023-08-06T02:20:58;16.70;99.90
17795;DHT22;9021;50.882;4.326;2023-08-06T02:23:24;16.70;99.90
17795;DHT22;9021;50.882;4.326;2023-08-06T02:28:24;16.80;99.90
17795;DHT22;9021;50.882;4.326;2023-08-06T02:30:50;16.80;99.90
17795;DHT22;9021;50.882;4.326;2023-08-06T02:33:16;16.80;99.90
17795;DHT22;9021;50.882;4.326;2023-08-06T02:35:41;16.80;99.90
17795;DHT22;9021;50.882;4.326;2023-08-06T02:38:07;16.80;99.90
17795;DHT22;9021;50.882;4.326;2023-08-06T02:40:32;16.70;99.90
17795;DHT22;9021;50.882;4.326;2023-08-06T02:42:58;16.70;99.90
17795;DHT22;9021;50.882;4.326;2023-08-06T02:45:23;16.70;99.90
17795;DHT22;9021;50.882;4.326;2023-08-06T02:47:49;16.70;99.90
17795;DHT22;9021;50.882;4.326;2023-08-06T02:50:14;16.70;99.90
17795;DHT22;9021;50.882;4.326;2023-08-06T02:52:40;16.80;99.90
17795;DHT22;9021;50.882;4.326;2023-08-06T02:55:06;16.90;99.90
17795;DHT22;9021;50.882;4.326;2023-08-06T02:57:31;16.90;99.90
17795;DHT22;9021;50.882;4.326;2023-08-06T02:59:57;16.90;99.90
17795;DHT22;9021;50.882;4.326;2023-08-06T03:02:22;16.90;99.90
17795;DHT22;9021;50.882;4.326;2023-08-06T03:04:48;16.90;99.90
17795;DHT22;9021;50.882;4.326;2023-08-06T03:07:13;16.90;99.90
17795;DHT22;9021;50.882;4.326;2023-08-06T03:09:39;16.90;99.90
17795;DHT22;9021;50.882;4.326;2023-08-06T03:12:05;16.90;99.90
17795;DHT22;9021;50.882;4.326;2023-08-06T03:14:30;16.90;99.90
17795;DHT22;9021;50.882;4.326;2023-08-06T03:16:56;16.90;99.90
17795;DHT22;9021;50.882;4.326;2023-08-06T03:19:21;16.90;99.90
17795;DHT22;9021;50.882;4.326;2023-08-06T03:21:47;17.00;99.90
17795;DHT22;9021;50.882;4.326;2023-08-06T03:24:13;16.90;99.90
17795;DHT22;9021;50.882;4.326;2023-08-06T03:26:38;17.00;99.90
17795;DHT22;9021;50.882;4.326;2023-08-06T03:29:04;16.90;99.90
17795;DHT22;9021;50.882;4.326;2023-08-06T03:31:29;17.00;99.90
17795;DHT22;9021;50.882;4.326;2023-08-06T03:33:55;17.00;99.90
17795;DHT22;9021;50.882;4.326;2023-08-06T03:36:20;16.90;99.90
17795;DHT22;9021;50.882;4.326;2023-08-06T03:38:47;17.00;99.90
17795;DHT22;9021;50.882;4.326;2023-08-06T03:41:12;16.90;99.90
17795;DHT22;9021;50.882;4.326;2023-08-06T03:43:38;17.00;99.90
17795;DHT22;9021;50.882;4.326;2023-08-06T03:46:03;16.90;99.90
17795;DHT22;9021;50.882;4.326;2023-08-06T03:48:29;16.90;99.90
17795;DHT22;9021;50.882;4.326;2023-08-06T03:50:54;16.90;99.90
17795;DHT22;9021;50.882;4.326;2023-08-06T03:53:20;17.00;99.90
17795;DHT22;9021;50.882;4.326;2023-08-06T03:55:45;17.00;99.90
17795;DHT22;9021;50.882;4.326;2023-08-06T03:58:11;16.90;99.90
17795;DHT22;9021;50.882;4.326;2023-08-06T04:00:36;16.90;99.90
17795;DHT22;9021;50.882;4.326;2023-08-06T04:03:02;16.80;99.90
17795;DHT22;9021;50.882;4.326;2023-08-06T04:05:27;16.80;99.90
17795;DHT22;9021;50.882;4.326;2023-08-06T04:07:53;16.80;99.90
17795;DHT22;9021;50.882;4.326;2023-08-06T04:10:18;16.60;99.90
17795;DHT22;9021;50.882;4.326;2023-08-06T04:12:44;16.60;99.90
17795;DHT22;9021;50.882;4.326;2023-08-06T04:15:09;16.40;99.90
17795;DHT22;9021;50.882;4.326;2023-08-06T04:17:35;16.40;99.90
17795;DHT22;9021;50.882;4.326;2023-08-06T04:20:00;16.30;99.90
17795;DHT22;9021;50.882;4.326;2023-08-06T04:22:27;16.30;99.90
17795;DHT22;9021;50.882;4.326;2023-08-06T04:24:52;16.30;99.90
17795;DHT22;9021;50.882;4.326;2023-08-06T04:27:18;16.20;99.90
17795;DHT22;9021;50.882;4.326;2023-08-06T04:29:44;16.30;99.90
17795;DHT22;9021;50.882;4.326;2023-08-06T04:32:10;16.20;99.90
17795;DHT22;9021;50.882;4.326;2023-08-06T04:34:36;16.20;99.90
17795;DHT22;9021;50.882;4.326;2023-08-06T04:37:01;16.20;99.90
17795;DHT22;9021;50.882;4.326;2023-08-06T04:39:27;16.20;99.90
17795;DHT22;9021;50.882;4.326;2023-08-06T04:41:53;16.20;99.90
17795;DHT22;9021;50.882;4.326;2023-08-06T04:44:18;16.20;99.90
17795;DHT22;9021;50.882;4.326;2023-08-06T04:46:44;16.10;99.90
17795;DHT22;9021;50.882;4.326;2023-08-06T04:49:09;16.00;99.90
17795;DHT22;9021;50.882;4.326;2023-08-06T04:51:35;16.00;99.90
17795;DHT22;9021;50.882;4.326;2023-08-06T04:54:00;16.00;99.90
17795;DHT22;9021;50.882;4.326;2023-08-06T04:56:26;16.10;99.90
17795;DHT22;9021;50.882;4.326;2023-08-06T04:58:52;16.00;99.90
17795;DHT22;9021;50.882;4.326;2023-08-06T05:01:17;16.00;99.90
17795;DHT22;9021;50.882;4.326;2023-08-06T05:03:43;15.90;99.90
17795;DHT22;9021;50.882;4.326;2023-08-06T05:06:08;15.90;99.90
17795;DHT22;9021;50.882;4.326;2023-08-06T05:08:34;15.90;99.90
17795;DHT22;9021;50.882;4.326;2023-08-06T05:10:59;15.90;99.90
17795;DHT22;9021;50.882;4.326;2023-08-06T05:13:25;15.90;99.90
17795;DHT22;9021;50.882;4.326;2023-08-06T05:15:51;15.90;99.90
17795;DHT22;9021;50.882;4.326;2023-08-06T05:18:16;15.80;99.90
17795;DHT22;9021;50.882;4.326;2023-08-06T05:20:42;15.90;99.90
17795;DHT22;9021;50.882;4.326;2023-08-06T05:23:08;16.00;99.90
17795;DHT22;9021;50.882;4.326;2023-08-06T05:25:37;16.00;99.90
17795;DHT22;9021;50.882;4.326;2023-08-06T05:28:03;15.80;99.90
17795;DHT22;9021;50.882;4.326;2023-08-06T05:30:28;15.90;99.90
17795;DHT22;9021;50.882;4.326;2023-08-06T05:32:54;16.00;99.90
17795;DHT22;9021;50.882;4.326;2023-08-06T05:35:20;16.00;99.90
17795;DHT22;9021;50.882;4.326;2023-08-06T05:37:46;15.90;99.90
17795;DHT22;9021;50.882;4.326;2023-08-06T05:40:12;15.90;99.90
17795;DHT22;9021;50.882;4.326;2023-08-06T05:42:37;15.90;99.90
17795;DHT22;9021;50.882;4.326;2023-08-06T05:45:03;16.00;99.90
17795;DHT22;9021;50.882;4.326;2023-08-06T05:47:28;16.00;99.90
17795;DHT22;9021;50.882;4.326;2023-08-06T05:49:54;16.00;99.90
17795;DHT22;9021;50.882;4.326;2023-08-06T05:52:19;16.00;99.90
17795;DHT22;9021;50.882;4.326;2023-08-06T05:54:45;16.10;99.90
17795;DHT22;9021;50.882;4.326;2023-08-06T05:57:10;16.00;99.90
17795;DHT22;9021;50.882;4.326;2023-08-06T05:59:36;16.00;99.90
17795;DHT22;9021;50.882;4.326;2023-08-06T06:02:01;16.10;99.90
17795;DHT22;9021;50.882;4.326;2023-08-06T06:04:28;16.10;99.90
17795;DHT22;9021;50.882;4.326;2023-08-06T06:06:53;16.10;99.90
17795;DHT22;9021;50.882;4.326;2023-08-06T06:09:19;16.10;99.90
17795;DHT22;9021;50.882;4.326;2023-08-06T06:11:44;16.10;99.90
17795;DHT22;9021;50.882;4.326;2023-08-06T06:14:10;16.10;99.90
17795;DHT22;9021;50.882;4.326;2023-08-06T06:16:35;16.10;99.90
17795;DHT22;9021;50.882;4.326;2023-08-06T06:19:01;16.10;99.90
17795;DHT22;9021;50.882;4.326;2023-08-06T06:21:26;16.10;99.90
17795;DHT22;9021;50.882;4.326;2023-08-06T06:23:52;16.10;99.90
17795;DHT22;9021;50.882;4.326;2023-08-06T06:26:18;16.20;99.90
17795;DHT22;9021;50.882;4.326;2023-08-06T06:28:43;16.30;99.90
17795;DHT22;9021;50.882;4.326;2023-08-06T06:31:09;16.20;99.90
17795;DHT22;9021;50.882;4.326;2023-08-06T06:33:34;16.20;99.90
17795;DHT22;9021;50.882;4.326;2023-08-06T06:36:00;16.30;99.90
17795;DHT22;9021;50.882;4.326;2023-08-06T06:38:25;16.30;99.90
17795;DHT22;9021;50.882;4.326;2023-08-06T06:40:54;16.30;99.90
17795;DHT22;9021;50.882;4.326;2023-08-06T06:43:20;16.40;99.90
17795;DHT22;9021;50.882;4.326;2023-08-06T06:45:46;16.40;99.90
17795;DHT22;9021;50.882;4.326;2023-08-06T06:48:11;16.40;99.90
17795;DHT22;9021;50.882;4.326;2023-08-06T06:50:37;16.40;99.90
17795;DHT22;9021;50.882;4.326;2023-08-06T06:53:04;16.50;99.90
17795;DHT22;9021;50.882;4.326;2023-08-06T06:55:30;16.50;99.90
17795;DHT22;9021;50.882;4.326;2023-08-06T06:57:55;16.50;99.90
17795;DHT22;9021;50.882;4.326;2023-08-06T07:00:21;16.40;99.90
17795;DHT22;9021;50.882;4.326;2023-08-06T07:02:46;16.40;99.90
17795;DHT22;9021;50.882;4.326;2023-08-06T07:05:12;16.30;99.90
17795;DHT22;9021;50.882;4.326;2023-08-06T07:07:37;16.30;99.90
17795;DHT22;9021;50.882;4.326;2023-08-06T07:10:03;16.30;99.90
17795;DHT22;9021;50.882;4.326;2023-08-06T07:12:28;16.40;99.90
17795;DHT22;9021;50.882;4.326;2023-08-06T07:14:54;16.50;99.90
17795;DHT22;9021;50.882;4.326;2023-08-06T07:17:19;16.40;99.90
17795;DHT22;9021;50.882;4.326;2023-08-06T07:19:45;16.50;99.90
17795;DHT22;9021;50.882;4.326;2023-08-06T07:22:10;16.60;99.90
17795;DHT22;9021;50.882;4.326;2023-08-06T07:24:36;16.60;99.90
17795;DHT22;9021;50.882;4.326;2023-08-06T07:27:01;16.50;99.90
17795;DHT22;9021;50.882;4.326;2023-08-06T07:29:27;16.50;99.90
17795;DHT22;9021;50.882;4.326;2023-08-06T07:31:52;16.40;99.90
17795;DHT22;9021;50.882;4.326;2023-08-06T07:34:18;16.50;99.90
17795;DHT22;9021;50.882;4.326;2023-08-06T07:36:44;16.60;99.90
17795;DHT22;9021;50.882;4.326;2023-08-06T07:39:10;16.60;99.90
17795;DHT22;9021;50.882;4.326;2023-08-06T07:41:36;16.70;99.90
17795;DHT22;9021;50.882;4.326;2023-08-06T07:44:01;16.90;99.90
17795;DHT22;9021;50.882;4.326;2023-08-06T07:46:27;17.00;99.90
17795;DHT22;9021;50.882;4.326;2023-08-06T07:48:52;17.20;99.90
17795;DHT22;9021;50.882;4.326;2023-08-06T07:51:18;17.40;99.90
17795;DHT22;9021;50.882;4.326;2023-08-06T07:53:43;17.40;99.90
17795;DHT22;9021;50.882;4.326;2023-08-06T07:56:09;17.50;99.90
17795;DHT22;9021;50.882;4.326;2023-08-06T07:58:35;17.60;99.90
17795;DHT22;9021;50.882;4.326;2023-08-06T08:01:01;17.60;99.90
17795;DHT22;9021;50.882;4.326;2023-08-06T08:03:26;17.80;99.90
17795;DHT22;9021;50.882;4.326;2023-08-06T08:05:54;17.90;99.90
17795;DHT22;9021;50.882;4.326;2023-08-06T08:08:21;18.30;99.90
17795;DHT22;9021;50.882;4.326;2023-08-06T08:10:47;18.50;99.90
17795;DHT22;9021;50.882;4.326;2023-08-06T08:13:13;16.70;99.90
17795;DHT22;9021;50.882;4.326;2023-08-06T08:15:38;18.50;99.90
17795;DHT22;9021;50.882;4.326;2023-08-06T08:18:04;18.40;99.90
17795;DHT22;9021;50.882;4.326;2023-08-06T08:20:29;18.30;99.90
17795;DHT22;9021;50.882;4.326;2023-08-06T08:22:57;18.10;99.90
17795;DHT22;9021;50.882;4.326;2023-08-06T08:25:23;17.90;99.90
17795;DHT22;9021;50.882;4.326;2023-08-06T08:27:49;17.80;99.90
17795;DHT22;9021;50.882;4.326;2023-08-06T08:30:14;17.90;99.90
17795;DHT22;9021;50.882;4.326;2023-08-06T08:32:40;17.70;99.90
17795;DHT22;9021;50.882;4.326;2023-08-06T08:35:05;17.50;99.90
17795;DHT22;9021;50.882;4.326;2023-08-06T08:37:31;17.30;99.90
17795;DHT22;9021;50.882;4.326;2023-08-06T08:39:56;17.20;99.90
17795;DHT22;9021;50.882;4.326;2023-08-06T08:42:22;17.20;99.90
17795;DHT22;9021;50.882;4.326;2023-08-06T08:44:47;17.20;99.90
17795;DHT22;9021;50.882;4.326;2023-08-06T08:47:13;17.10;99.90
17795;DHT22;9021;50.882;4.326;2023-08-06T08:49:41;17.20;99.90
17795;DHT22;9021;50.882;4.326;2023-08-06T08:52:07;17.40;99.90
17795;DHT22;9021;50.882;4.326;2023-08-06T08:54:36;17.60;99.90
17795;DHT22;9021;50.882;4.326;2023-08-06T08:57:03;17.70;99.90
17795;DHT22;9021;50.882;4.326;2023-08-06T08:59:28;17.80;99.90
17795;DHT22;9021;50.882;4.326;2023-08-06T09:01:54;17.80;99.90
17795;DHT22;9021;50.882;4.326;2023-08-06T09:04:20;17.70;99.90
17795;DHT22;9021;50.882;4.326;2023-08-06T09:06:48;17.80;99.90
17795;DHT22;9021;50.882;4.326;2023-08-06T09:09:33;17.80;99.90
17795;DHT22;9021;50.882;4.326;2023-08-06T09:12:01;17.70;99.90
17795;DHT22;9021;50.882;4.326;2023-08-06T09:14:27;17.60;99.90
17795;DHT22;9021;50.882;4.326;2023-08-06T09:16:53;17.50;99.90
17795;DHT22;9021;50.882;4.326;2023-08-06T09:19:19;17.40;99.90
17795;DHT22;9021;50.882;4.326;2023-08-06T09:21:45;17.40;99.90
17795;DHT22;9021;50.882;4.326;2023-08-06T09:24:14;17.30;99.90
17795;DHT22;9021;50.882;4.326;2023-08-06T09:26:40;17.90;99.90
17795;DHT22;9021;50.882;4.326;2023-08-06T09:29:06;17.10;99.90
17795;DHT22;9021;50.882;4.326;2023-08-06T09:31:33;17.10;99.90
17795;DHT22;9021;50.882;4.326;2023-08-06T09:33:59;17.00;99.90
17795;DHT22;9021;50.882;4.326;2023-08-06T09:36:26;17.00;99.90
17795;DHT22;9021;50.882;4.326;2023-08-06T09:38:52;17.00;99.90
17795;DHT22;9021;50.882;4.326;2023-08-06T09:41:27;17.00;99.90
17795;DHT22;9021;50.882;4.326;2023-08-06T09:43:53;17.00;99.90
17795;DHT22;9021;50.882;4.326;2023-08-06T09:46:19;16.80;99.90
17795;DHT22;9021;50.882;4.326;2023-08-06T09:48:46;16.80;99.90
17795;DHT22;9021;50.882;4.326;2023-08-06T09:51:11;16.70;99.90
17795;DHT22;9021;50.882;4.326;2023-08-06T09:53:38;16.80;99.90
17795;DHT22;9021;50.882;4.326;2023-08-06T09:56:05;16.80;99.90
17795;DHT22;9021;50.882;4.326;2023-08-06T09:58:31;16.70;99.90
17795;DHT22;9021;50.882;4.326;2023-08-06T10:00:57;16.70;99.90
17795;DHT22;9021;50.882;4.326;2023-08-06T10:03:23;16.80;99.90
17795;DHT22;9021;50.882;4.326;2023-08-06T10:05:48;16.80;99.90
17795;DHT22;9021;50.882;4.326;2023-08-06T10:08:14;16.90;99.90
17795;DHT22;9021;50.882;4.326;2023-08-06T10:10:40;17.00;99.90
17795;DHT22;9021;50.882;4.326;2023-08-06T10:13:05;16.90;99.90
17795;DHT22;9021;50.882;4.326;2023-08-06T10:15:32;16.80;99.90
17795;DHT22;9021;50.882;4.326;2023-08-06T10:17:57;16.80;99.90
17795;DHT22;9021;50.882;4.326;2023-08-06T10:20:24;16.80;99.90
17795;DHT22;9021;50.882;4.326;2023-08-06T10:22:59;16.80;99.90
17795;DHT22;9021;50.882;4.326;2023-08-06T10:25:24;16.70;99.90
17795;DHT22;9021;50.882;4.326;2023-08-06T10:30:22;16.70;99.90
17795;DHT22;9021;50.882;4.326;2023-08-06T10:32:52;16.60;99.90
17795;DHT22;9021;50.882;4.326;2023-08-06T10:40:28;16.50;99.90
17795;DHT22;9021;50.882;4.326;2023-08-06T10:42:58;16.50;99.90
17795;DHT22;9021;50.882;4.326;2023-08-06T10:45:24;16.60;99.90
17795;DHT22;9021;50.882;4.326;2023-08-06T10:47:54;16.70;99.90
17795;DHT22;9021;50.882;4.326;2023-08-06T10:50:19;16.70;99.90
17795;DHT22;9021;50.882;4.326;2023-08-06T10:52:45;16.80;99.90
17795;DHT22;9021;50.882;4.326;2023-08-06T10:55:12;16.80;99.90
17795;DHT22;9021;50.882;4.326;2023-08-06T10:57:38;16.90;99.90
17795;DHT22;9021;50.882;4.326;2023-08-06T11:00:06;16.80;99.90
17795;DHT22;9021;50.882;4.326;2023-08-06T11:02:36;16.70;99.90
17795;DHT22;9021;50.882;4.326;2023-08-06T11:05:06;16.80;99.90
17795;DHT22;9021;50.882;4.326;2023-08-06T11:07:32;16.80;99.90
17795;DHT22;9021;50.882;4.326;2023-08-06T11:10:15;16.80;99.90
17795;DHT22;9021;50.882;4.326;2023-08-06T11:12:40;16.90;99.90
17795;DHT22;9021;50.882;4.326;2023-08-06T11:15:06;17.00;99.90
17795;DHT22;9021;50.882;4.326;2023-08-06T11:17:33;17.00;99.90
17795;DHT22;9021;50.882;4.326;2023-08-06T11:19:59;17.00;99.90
17795;DHT22;9021;50.882;4.326;2023-08-06T11:22:25;17.10;99.90
17795;DHT22;9021;50.882;4.326;2023-08-06T11:24:50;17.20;99.90
17795;DHT22;9021;50.882;4.326;2023-08-06T11:27:16;17.30;99.90
17795;DHT22;9021;50.882;4.326;2023-08-06T11:29:42;17.30;99.90
17795;DHT22;9021;50.882;4.326;2023-08-06T11:32:08;17.30;99.90
17795;DHT22;9021;50.882;4.326;2023-08-06T11:34:34;17.30;99.90
17795;DHT22;9021;50.882;4.326;2023-08-06T11:37:00;17.30;99.90
17795;DHT22;9021;50.882;4.326;2023-08-06T11:39:27;17.20;99.90
17795;DHT22;9021;50.882;4.326;2023-08-06T11:41:53;17.20;99.90
17795;DHT22;9021;50.882;4.326;2023-08-06T11:44:19;17.10;99.90
17795;DHT22;9021;50.882;4.326;2023-08-06T11:46:54;16.90;99.90
17795;DHT22;9021;50.882;4.326;2023-08-06T11:54:44;16.70;99.90
17795;DHT22;9021;50.882;4.326;2023-08-06T11:57:10;16.60;99.90
17795;DHT22;9021;50.882;4.326;2023-08-06T11:59:37;16.50;99.90
17795;DHT22;9021;50.882;4.326;2023-08-06T12:02:03;16.50;99.90
17795;DHT22;9021;50.882;4.326;2023-08-06T12:04:31;16.50;99.90
17795;DHT22;9021;50.882;4.326;2023-08-06T12:07:04;16.60;99.90
17795;DHT22;9021;50.882;4.326;2023-08-06T12:09:29;16.70;99.90
17795;DHT22;9021;50.882;4.326;2023-08-06T12:11:55;16.90;99.90
17795;DHT22;9021;50.882;4.326;2023-08-06T12:14:20;17.10;99.90
17795;DHT22;9021;50.882;4.326;2023-08-06T12:16:46;17.10;99.90
17795;DHT22;9021;50.882;4.326;2023-08-06T12:19:11;17.30;99.90
17795;DHT22;9021;50.882;4.326;2023-08-06T12:21:37;17.40;99.90
17795;DHT22;9021;50.882;4.326;2023-08-06T12:24:02;17.50;99.90
17795;DHT22;9021;50.882;4.326;2023-08-06T12:26:28;17.70;99.90
17795;DHT22;9021;50.882;4.326;2023-08-06T12:28:53;17.80;99.90
17795;DHT22;9021;50.882;4.326;2023-08-06T12:31:20;18.00;99.90
17795;DHT22;9021;50.882;4.326;2023-08-06T12:33:45;18.00;99.90
17795;DHT22;9021;50.882;4.326;2023-08-06T12:36:11;18.10;99.90
17795;DHT22;9021;50.882;4.326;2023-08-06T12:38:36;18.20;99.90
17795;DHT22;9021;50.882;4.326;2023-08-06T12:41:02;17.90;99.90
17795;DHT22;9021;50.882;4.326;2023-08-06T12:43:27;17.70;99.90
17795;DHT22;9021;50.882;4.326;2023-08-06T12:45:53;17.60;99.90
17795;DHT22;9021;50.882;4.326;2023-08-06T12:48:18;17.40;99.90
17795;DHT22;9021;50.882;4.326;2023-08-06T12:50:44;17.40;99.90
17795;DHT22;9021;50.882;4.326;2023-08-06T12:53:10;17.50;99.90
17795;DHT22;9021;50.882;4.326;2023-08-06T12:55:35;17.70;99.90
17795;DHT22;9021;50.882;4.326;2023-08-06T12:58:01;17.80;99.90
17795;DHT22;9021;50.882;4.326;2023-08-06T13:00:26;17.80;99.90
17795;DHT22;9021;50.882;4.326;2023-08-06T13:02:52;17.80;99.90
17795;DHT22;9021;50.882;4.326;2023-08-06T13:05:17;17.70;99.90
17795;DHT22;9021;50.882;4.326;2023-08-06T13:07:43;17.70;99.90
17795;DHT22;9021;50.882;4.326;2023-08-06T13:10:09;17.70;99.90
17795;DHT22;9021;50.882;4.326;2023-08-06T13:12:34;17.50;99.90
17795;DHT22;9021;50.882;4.326;2023-08-06T13:15:00;17.40;99.90
17795;DHT22;9021;50.882;4.326;2023-08-06T13:17:25;17.40;99.90
17795;DHT22;9021;50.882;4.326;2023-08-06T13:19:52;17.40;99.90
17795;DHT22;9021;50.882;4.326;2023-08-06T13:22:17;17.30;99.90
17795;DHT22;9021;50.882;4.326;2023-08-06T13:24:43;17.20;99.90
17795;DHT22;9021;50.882;4.326;2023-08-06T13:27:08;17.10;99.90
17795;DHT22;9021;50.882;4.326;2023-08-06T13:29:35;17.10;99.90
17795;DHT22;9021;50.882;4.326;2023-08-06T13:32:00;17.00;99.90
17795;DHT22;9021;50.882;4.326;2023-08-06T13:34:26;17.00;99.90
17795;DHT22;9021;50.882;4.326;2023-08-06T13:36:51;17.00;99.90
17795;DHT22;9021;50.882;4.326;2023-08-06T13:39:17;16.90;99.90
17795;DHT22;9021;50.882;4.326;2023-08-06T13:41:42;17.00;99.90
17795;DHT22;9021;50.882;4.326;2023-08-06T13:44:08;17.00;99.90
17795;DHT22;9021;50.882;4.326;2023-08-06T13:46:34;17.00;99.90
17795;DHT22;9021;50.882;4.326;2023-08-06T13:49:00;17.10;99.90
17795;DHT22;9021;50.882;4.326;2023-08-06T13:51:25;17.00;99.90
17795;DHT22;9021;50.882;4.326;2023-08-06T13:53:51;16.80;99.90
17795;DHT22;9021;50.882;4.326;2023-08-06T13:56:17;16.70;99.90
17795;DHT22;9021;50.882;4.326;2023-08-06T13:58:43;16.70;99.90
17795;DHT22;9021;50.882;4.326;2023-08-06T14:01:12;16.70;99.90
17795;DHT22;9021;50.882;4.326;2023-08-06T14:03:38;16.70;99.90
17795;DHT22;9021;50.882;4.326;2023-08-06T14:06:04;16.70;99.90
17795;DHT22;9021;50.882;4.326;2023-08-06T14:08:29;16.80;99.90
17795;DHT22;9021;50.882;4.326;2023-08-06T14:10:55;16.90;99.90
17795;DHT22;9021;50.882;4.326;2023-08-06T14:13:21;17.00;99.90
17795;DHT22;9021;50.882;4.326;2023-08-06T14:15:46;17.00;99.90
17795;DHT22;9021;50.882;4.326;2023-08-06T14:18:13;17.00;99.90
17795;DHT22;9021;50.882;4.326;2023-08-06T14:20:38;17.00;99.90
17795;DHT22;9021;50.882;4.326;2023-08-06T14:23:04;17.00;99.90
17795;DHT22;9021;50.882;4.326;2023-08-06T14:25:29;17.10;99.90
17795;DHT22;9021;50.882;4.326;2023-08-06T14:27:55;17.10;99.90
17795;DHT22;9021;50.882;4.326;2023-08-06T14:30:20;17.10;99.90
17795;DHT22;9021;50.882;4.326;2023-08-06T14:32:46;17.10;99.90
17795;DHT22;9021;50.882;4.326;2023-08-06T14:35:11;17.00;99.90
17795;DHT22;9021;50.882;4.326;2023-08-06T14:37:37;17.00;99.90
17795;DHT22;9021;50.882;4.326;2023-08-06T14:40:05;16.90;99.90
17795;DHT22;9021;50.882;4.326;2023-08-06T14:42:30;16.90;99.90
17795;DHT22;9021;50.882;4.326;2023-08-06T14:44:56;16.90;99.90
17795;DHT22;9021;50.882;4.326;2023-08-06T14:47:21;16.90;99.90
17795;DHT22;9021;50.882;4.326;2023-08-06T14:49:47;17.10;99.90
17795;DHT22;9021;50.882;4.326;2023-08-06T14:52:14;17.10;99.90
17795;DHT22;9021;50.882;4.326;2023-08-06T14:54:40;17.10;99.90
17795;DHT22;9021;50.882;4.326;2023-08-06T14:57:06;17.20;99.90
17795;DHT22;9021;50.882;4.326;2023-08-06T14:59:32;17.30;99.90
17795;DHT22;9021;50.882;4.326;2023-08-06T15:01:58;17.40;99.90
17795;DHT22;9021;50.882;4.326;2023-08-06T15:04:23;17.40;99.90
17795;DHT22;9021;50.882;4.326;2023-08-06T15:06:49;17.30;99.90
17795;DHT22;9021;50.882;4.326;2023-08-06T15:09:14;17.40;99.90
17795;DHT22;9021;50.882;4.326;2023-08-06T15:11:40;17.40;99.90
17795;DHT22;9021;50.882;4.326;2023-08-06T15:14:05;17.40;99.90
17795;DHT22;9021;50.882;4.326;2023-08-06T15:16:33;17.40;99.90
17795;DHT22;9021;50.882;4.326;2023-08-06T15:18:59;17.50;99.90
17795;DHT22;9021;50.882;4.326;2023-08-06T15:21:25;17.60;99.90
17795;DHT22;9021;50.882;4.326;2023-08-06T15:23:51;17.50;99.90
17795;DHT22;9021;50.882;4.326;2023-08-06T15:26:16;17.20;99.90
17795;DHT22;9021;50.882;4.326;2023-08-06T15:28:42;17.10;99.90
17795;DHT22;9021;50.882;4.326;2023-08-06T15:31:07;17.00;99.90
17795;DHT22;9021;50.882;4.326;2023-08-06T15:33:34;17.00;99.90
17795;DHT22;9021;50.882;4.326;2023-08-06T15:35:59;16.90;99.90
17795;DHT22;9021;50.882;4.326;2023-08-06T15:38:25;17.10;99.90
17795;DHT22;9021;50.882;4.326;2023-08-06T15:40:50;17.20;99.90
17795;DHT22;9021;50.882;4.326;2023-08-06T15:43:16;17.40;99.90
17795;DHT22;9021;50.882;4.326;2023-08-06T15:45:41;17.70;99.90
17795;DHT22;9021;50.882;4.326;2023-08-06T15:48:07;17.90;99.90
17795;DHT22;9021;50.882;4.326;2023-08-06T15:50:36;18.00;99.90
17795;DHT22;9021;50.882;4.326;2023-08-06T15:53:01;18.00;99.90
17795;DHT22;9021;50.882;4.326;2023-08-06T15:55:27;18.20;99.90